Springfield, Colorado
Current Conditions -  °F | °C
As of 4:53 AM on Friday 21 Nov 2014 (Local Time) from KLAA Reporting Station
Haze Haze  
Wind Chill: 19°   Ceiling: Unl
Heat Index: 26°   Visibility: 6mi
Dew Point: 25°   Wind: 6mph
Humidity: 96%   Direction: 330°NNW
Pressure: 29.97"   Gusts: NA
Location:  37.41°N, 102.61°W
Report Text: KLAA 211153Z AUTO 33005KT 6SM BR CLR M03/M04 A2997 RMK AO2 SLP157 T10331039 10017 21033 58007
Loading
Personal Weather Stations






























Interactive Weather Map New forecast layout! Learn more

10-Day Weather Forecast

Advertisements
Track Severe Weather on mobile